LFMCLIMF

Guest
Details From LFMC - Le Cannet
To LIMF - Torino Caselle
Flight Number -
Tags generated
Created
Modified
Stats Distance 122 nm / 226 km
Max Altitude 15,200 ft / 4,633 m
Waypoints 3
Social Downloads 1
Likes 0
Share VATSIM

Download

Looking for another format? Having issues loading an existing format? Contact us
Advertisement - Login to hide

Notes

Basic altitude profile: - Ascent Rate: 2500ft/min - Ascent Speed: 250kts - Cruise Altitude: 35000ft - Cruise Speed: 420kts - Descent Rate: 1500ft/min - Descent Speed: 250kts Options: - Use NATs: yes - Use PACOTS: yes - Use low airways: yes - Use high airways: yes

Route

LFMC BARSO LIMF

ID Type Via Altitude Latitude Longitude Leg Dist Tot Dist Heading (true) Name
O LFMC APT - 0 ft / 0 m 43.38443˚ 6.38537˚ - 0 nm - Le Cannet
BARSO FIX - 15,200 ft / 4,633 m 44.14361˚ 6.89028˚ 50 nm 50 nm 25° / 26° -
O LIMF APT - 0 ft / 0 m 45.20076˚ 7.64963˚ 71 nm 121 nm 27° / 27° Torino Caselle

Altitude Profile

Advertisement - Login to hide

LFMC

Details ICAO LFMC
Name Le Cannet
Region France
Timezone Europe/Paris (UTC+1.0)
Stats Elevation 264 ft / 80 m (AMSL)
Location 43.384430° 6.385368°
Runways 2
Magnetic Variation 1.827° E

METAR

LFMC 160730Z AUTO 26004KT 210V330 9999 ////// 06/M01 Q1006

Decode

TAF

Not found

Departure Runways

ID Width Length Bearing (true) Bearing (mag) Surface Threshold Offset Overrun Length
09 98 ft / 30 m 2,619 ft / 798 m 88.40° 86.57° Asphalt 0 ft / 0 m 0 ft / 0 m
13 98 ft / 30 m 4,789 ft / 1,460 m 130.24° 128.41° Asphalt 984 ft / 300 m 0 ft / 0 m
27 98 ft / 30 m 2,619 ft / 798 m 268.41° 266.58° Asphalt 0 ft / 0 m 0 ft / 0 m
31 98 ft / 30 m 4,789 ft / 1,460 m 310.25° 308.42° Asphalt 312 ft / 95 m 0 ft / 0 m

LIMF

Details ICAO LIMF (TRN)
Name Torino Caselle
Region Italy
Timezone Europe/Rome (UTC+1.0)
Stats Elevation 989 ft / 301 m (AMSL)
Location 45.200763° 7.649630°
Runways 1
Magnetic Variation 2.122° E

METAR

LIMF 160720Z 09005KT 9999 BKN130 M03/M07 Q1005

Decode

TAF

TAF LIMF 160500Z 1606/1706 VRB05KT CAVOK

Decode

Destination Runways

ID Width Length Bearing (true) Bearing (mag) Surface Threshold Offset Overrun Length
18 197 ft / 60 m 10,835 ft / 3,303 m 182.56° 180.44° Asphalt 2,378 ft / 725 m 970 ft / 296 m
36 197 ft / 60 m 10,835 ft / 3,303 m 2.56° 0.44° Asphalt 1,148 ft / 350 m 0 ft / 0 m

Approach Navaids

Runway Type Ident Frequency Range Bearing (true) Bearing (mag) Slope Elevation
36 Localiser ITOC 108.70 MHz 18 nm / 33 km 2.56° 0.44° - 989 ft / 301 m (AMSL)
36 Glidescope ITOC 108.70 MHz 10 nm / 19 km 2.56° 0.44° 3.00° 989 ft / 301 m (AMSL)
36 DME ITOC 108.70 MHz 25 nm / 46 km - - - 989 ft / 301 m (AMSL)